Time;durP1;ratioP1;P1;durP2;ratioP2;P2;SDS_P1;SDS_P2;PMS_P1;PMS_P2;Temp;Humidity;BMP_temperature;BMP_pressure;BME280_temperature;BME280_humidity;BME280_pressure;Samples;Min_cycle;Max_cycle;Signal;HPM_P1;HPM_P2
2021/12/05 00:24:38;;;;;;;32.42;17.05;;;;;;;4.79;85.92;92741.50;5078045;28;20100;-40
2021/12/05 00:27:11;;;;;;;30.27;16.00;;;;;;;4.81;86.35;92755.38;5078604;28;20078;-40
2021/12/05 00:29:50;;;;;;;29.67;16.35;;;;;;;4.89;86.15;92745.28;5077249;28;20018;-39
2021/12/05 00:40:36;;;;;;;26.35;15.25;;;;;;;4.72;87.17;92744.16;5078879;28;20096;-43
2021/12/05 00:46:28;;;;;;;24.67;14.18;;;;;;;4.75;87.32;92746.56;5076499;28;20034;-46
2021/12/05 01:17:26;;;;;;;23.20;13.57;;;;;;;4.80;86.93;92721.09;5082190;28;20030;-42
2021/12/05 01:19:53;;;;;;;23.35;14.27;;;;;;;4.75;87.20;92721.19;5084398;28;20513;-42
2021/12/05 01:22:21;;;;;;;23.25;13.52;;;;;;;4.73;87.43;92715.53;5084405;28;20036;-45
2021/12/05 01:27:34;;;;;;;15.90;9.75;;;;;;;4.80;87.21;92720.34;5081999;28;20112;-43
2021/12/05 01:30:08;;;;;;;15.02;9.85;;;;;;;4.83;86.97;92717.28;5078372;28;20020;-41
2021/12/05 01:51:13;;;;;;;17.90;10.70;;;;;;;4.68;87.59;92703.44;5081162;28;20021;-43
2021/12/05 01:59:02;;;;;;;17.48;9.43;;;;;;;4.44;87.54;92663.44;5081569;28;20059;-41
2021/12/05 02:01:54;;;;;;;14.05;8.77;;;;;;;4.55;88.13;92684.31;5078791;28;20057;-42
2021/12/05 02:09:58;;;;;;;24.92;14.40;;;;;;;4.79;87.41;92683.31;5082998;28;20417;-41
2021/12/05 02:41:48;;;;;;;24.35;12.57;;;;;;;4.08;92.03;92661.66;5081983;28;20024;-41
2021/12/05 02:44:21;;;;;;;23.13;11.18;;;;;;;4.05;91.56;92657.28;5080669;28;20034;-44
2021/12/05 02:46:51;;;;;;;20.65;11.93;;;;;;;4.03;91.64;92663.25;5079742;28;20028;-40
2021/12/05 02:49:17;;;;;;;24.33;12.23;;;;;;;3.96;92.44;92671.34;5080432;28;20521;-42
2021/12/05 02:51:58;;;;;;;22.95;13.63;;;;;;;3.93;92.54;92675.13;5077789;28;20055;-44
2021/12/05 02:54:26;;;;;;;18.58;10.20;;;;;;;3.90;92.46;92679.63;5080178;28;20036;-40
2021/12/05 02:56:53;;;;;;;19.92;11.23;;;;;;;3.79;92.21;92649.78;5079176;28;20077;-40
2021/12/05 02:59:28;;;;;;;16.65;10.13;;;;;;;4.00;92.08;92669.78;5077697;28;20082;-39
2021/12/05 03:02:03;;;;;;;21.48;10.98;;;;;;;4.01;91.78;92667.75;5078534;28;20517;-41
2021/12/05 03:04:32;;;;;;;18.60;10.88;;;;;;;4.04;91.92;92672.19;5079570;28;20039;-42
2021/12/05 03:06:59;;;;;;;16.20;9.10;;;;;;;4.08;91.36;92678.06;5080409;28;20035;-42
2021/12/05 03:09:25;;;;;;;17.08;10.32;;;;;;;4.13;91.30;92675.25;5079615;28;20036;-42
2021/12/05 03:11:52;;;;;;;19.00;10.25;;;;;;;4.20;91.07;92677.31;5078556;28;20043;-42
2021/12/05 03:14:18;;;;;;;15.68;10.07;;;;;;;4.26;90.78;92669.78;5079174;28;20129;-47
2021/12/05 03:16:44;;;;;;;14.05;8.63;;;;;;;4.30;89.53;92675.66;5080012;28;20040;-46
2021/12/05 03:19:10;;;;;;;16.10;8.98;;;;;;;4.26;89.12;92669.78;5079905;28;20495;-46
2021/12/05 03:21:39;;;;;;;21.02;10.50;;;;;;;4.22;89.81;92676.81;5076337;28;20122;-45
2021/12/05 03:24:05;;;;;;;19.17;11.33;;;;;;;4.31;89.68;92677.09;5078213;28;20020;-44
2021/12/05 03:26:34;;;;;;;26.67;11.63;;;;;;;4.34;89.98;92665.13;5078883;28;20450;-47
2021/12/05 03:29:00;;;;;;;15.02;9.43;;;;;;;4.26;89.65;92653.38;5078253;28;20031;-46
2021/12/05 03:31:28;;;;;;;15.73;9.38;;;;;;;4.33;88.90;92674.56;5075359;28;20046;-45
2021/12/05 03:33:54;;;;;;;14.45;9.00;;;;;;;4.21;89.18;92675.31;5078341;28;20029;-43
2021/12/05 03:36:20;;;;;;;16.95;9.73;;;;;;;4.09;89.93;92636.59;5078621;28;20031;-44
2021/12/05 03:38:45;;;;;;;12.48;7.75;;;;;;;4.26;89.39;92672.50;5079878;28;21234;-43
2021/12/05 03:41:13;;;;;;;16.20;9.05;;;;;;;4.17;89.76;92667.47;5076317;28;20417;-46
2021/12/05 03:43:41;;;;;;;11.50;7.78;;;;;;;4.27;89.56;92681.41;5079619;28;20040;-45
2021/12/05 03:46:06;;;;;;;15.60;9.65;;;;;;;4.17;89.18;92677.66;5079306;28;20044;-44
2021/12/05 03:48:37;;;;;;;13.63;8.38;;;;;;;4.09;89.61;92677.56;5076849;28;20515;-43
2021/12/05 03:51:04;;;;;;;15.18;8.93;;;;;;;4.10;89.15;92673.53;5079176;28;20501;-46
2021/12/05 03:53:29;;;;;;;17.98;9.60;;;;;;;4.10;89.66;92681.75;5080346;28;20032;-44
2021/12/05 03:55:56;;;;;;;20.25;10.30;;;;;;;4.05;90.09;92685.31;5078140;28;20391;-45
2021/12/05 03:58:23;;;;;;;16.70;9.52;;;;;;;4.03;90.45;92690.56;5076095;28;20049;-48
2021/12/05 04:00:53;;;;;;;29.00;9.27;;;;;;;4.00;90.49;92699.06;5077701;28;20111;-43
2021/12/05 04:03:21;;;;;;;13.45;7.80;;;;;;;3.90;90.55;92704.19;5077339;28;20029;-41
2021/12/05 04:05:47;;;;;;;50.67;12.43;;;;;;;3.77;90.83;92685.81;5076414;28;20028;-42
2021/12/05 04:08:15;;;;;;;13.57;7.43;;;;;;;3.78;91.29;92687.31;5081064;28;20051;-44
2021/12/05 04:10:44;;;;;;;12.75;8.32;;;;;;;3.96;90.93;92680.28;5077194;28;20501;-41
2021/12/05 04:13:09;;;;;;;65.70;11.88;;;;;;;3.56;90.60;92635.81;5078949;28;20032;-40
2021/12/05 04:15:35;;;;;;;16.98;9.32;;;;;;;3.88;90.73;92679.41;5078122;28;20043;-41
2021/12/05 04:18:01;;;;;;;17.67;9.88;;;;;;;3.91;90.43;92691.28;5078996;28;20016;-40
2021/12/05 04:20:28;;;;;;;19.48;9.93;;;;;;;4.01;89.96;92690.34;5078418;28;20111;-42
2021/12/05 04:22:54;;;;;;;20.88;10.45;;;;;;;3.96;89.93;92696.66;5078918;28;20032;-42
2021/12/05 04:25:20;;;;;;;15.63;9.40;;;;;;;4.03;89.78;92698.75;5079259;28;20085;-42
2021/12/05 04:27:47;;;;;;;15.50;8.88;;;;;;;3.93;89.91;92700.44;5079626;28;20028;-46
2021/12/05 04:30:15;;;;;;;24.10;10.95;;;;;;;3.92;90.89;92715.34;5078826;28;20034;-42
2021/12/05 04:32:41;;;;;;;15.15;9.57;;;;;;;3.92;91.46;92685.28;5077576;28;20042;-43
2021/12/05 04:35:07;;;;;;;19.83;9.80;;;;;;;4.16;91.06;92709.69;5079050;28;20032;-41
2021/12/05 04:37:33;;;;;;;16.42;10.05;;;;;;;4.22;90.81;92702.13;5077815;28;20124;-41
2021/12/05 04:39:58;;;;;;;21.45;10.48;;;;;;;4.31;90.43;92704.44;5077883;28;20107;-44
2021/12/05 04:42:24;;;;;;;14.95;8.27;;;;;;;4.30;90.17;92704.97;5077405;28;20492;-41
2021/12/05 04:44:50;;;;;;;18.80;9.68;;;;;;;4.36;89.53;92708.31;5078105;28;20452;-41
2021/12/05 04:47:16;;;;;;;17.48;10.55;;;;;;;4.50;89.21;92710.50;5077050;28;20119;-45
2021/12/05 04:49:43;;;;;;;17.13;10.00;;;;;;;4.52;88.69;92708.00;5077030;28;20042;-44
2021/12/05 04:52:10;;;;;;;18.33;10.48;;;;;;;4.50;88.70;92710.50;5077692;28;20024;-46
2021/12/05 04:54:36;;;;;;;16.27;10.25;;;;;;;4.55;88.31;92717.13;5077787;28;20163;-45
2021/12/05 04:57:02;;;;;;;15.93;9.52;;;;;;;4.57;88.74;92731.00;5079545;28;20040;-42
2021/12/05 04:59:29;;;;;;;17.95;10.18;;;;;;;4.67;88.01;92734.78;5076076;28;20036;-43
2021/12/05 05:01:57;;;;;;;20.20;12.48;;;;;;;4.60;87.99;92735.41;5076557;28;20143;-44
2021/12/05 05:06:50;;;;;;;17.83;10.55;;;;;;;4.29;89.16;92720.63;5078957;28;20401;-43
2021/12/05 05:09:15;;;;;;;17.90;10.13;;;;;;;4.38;89.27;92747.53;5079757;28;20063;-43
2021/12/05 05:11:41;;;;;;;20.35;11.85;;;;;;;4.38;89.63;92744.78;5079153;28;20036;-41
2021/12/05 05:14:08;;;;;;;21.83;11.40;;;;;;;4.30;89.52;92722.09;5076869;28;20032;-45
2021/12/05 05:16:34;;;;;;;20.65;11.48;;;;;;;4.60;89.19;92741.63;5078440;28;20493;-42
2021/12/05 05:19:00;;;;;;;27.35;12.07;;;;;;;4.63;88.59;92740.56;5075650;28;20111;-40
2021/12/05 05:49:58;;;;;;;18.35;10.63;;;;;;;4.61;88.64;92742.38;5080254;28;20043;-41
2021/12/05 05:52:26;;;;;;;24.25;12.23;;;;;;;4.54;89.00;92738.28;5079221;28;20107;-40
2021/12/05 05:54:53;;;;;;;28.40;14.20;;;;;;;4.66;89.25;92749.00;5080455;28;20039;-39
2021/12/05 05:57:37;;;;;;;26.25;13.38;;;;;;;4.74;88.80;92755.28;5080795;28;20032;-43
2021/12/05 06:00:15;;;;;;;26.10;13.45;;;;;;;4.60;88.88;92747.09;5081855;28;20043;-42
2021/12/05 06:05:27;;;;;;;24.00;10.90;;;;;;;4.50;88.83;92770.63;5089473;28;20034;-45
2021/12/05 06:07:52;;;;;;;25.45;12.02;;;;;;;4.54;89.79;92762.88;5081709;28;20046;-41
2021/12/05 06:10:22;;;;;;;24.27;13.02;;;;;;;4.56;89.76;92763.09;5082003;28;20032;-43
2021/12/05 06:12:48;;;;;;;20.83;11.60;;;;;;;4.75;89.19;92771.16;5085538;28;20412;-41
2021/12/05 06:15:17;;;;;;;22.65;12.25;;;;;;;4.69;89.04;92756.13;5081229;28;20037;-41
2021/12/05 06:17:43;;;;;;;16.23;9.88;;;;;;;4.76;88.32;92753.50;5079922;28;20024;-41
2021/12/05 06:20:11;;;;;;;22.23;10.48;;;;;;;4.81;88.23;92749.19;5079717;28;20111;-42
2021/12/05 06:22:37;;;;;;;19.45;12.57;;;;;;;4.99;86.90;92748.28;5078486;28;20036;-42
2021/12/05 06:25:08;;;;;;;18.10;10.18;;;;;;;4.98;86.60;92746.84;5080420;28;20109;-43
2021/12/05 06:27:34;;;;;;;18.80;11.10;;;;;;;4.85;87.21;92738.66;5078691;28;20085;-45
2021/12/05 06:30:14;;;;;;;22.25;12.18;;;;;;;4.79;87.73;92744.22;5077777;28;20040;-42
2021/12/05 06:39:18;;;;;;;19.25;10.40;;;;;;;4.85;88.09;92742.09;5082783;28;20039;-40
2021/12/05 06:46:18;;;;;;;21.30;12.02;;;;;;;4.89;87.96;92742.53;5080748;28;20115;-41
2021/12/05 06:48:45;;;;;;;17.67;10.02;;;;;;;4.90;88.08;92746.75;5080321;28;20513;-45
2021/12/05 06:51:11;;;;;;;24.10;12.68;;;;;;;5.00;87.95;92761.44;5079858;28;20106;-40
2021/12/05 06:53:38;;;;;;;27.40;15.20;;;;;;;5.00;87.63;92769.63;5083388;28;20119;-42
2021/12/05 06:56:05;;;;;;;29.63;11.82;;;;;;;5.12;87.42;92770.16;5078294;28;20055;-41
2021/12/05 06:58:32;;;;;;;15.77;9.77;;;;;;;5.00;86.73;92777.13;5078693;28;20031;-41
2021/12/05 07:01:01;;;;;;;22.25;10.95;;;;;;;5.13;86.38;92779.84;5078170;28;20027;-43
2021/12/05 07:03:27;;;;;;;15.15;9.05;;;;;;;5.12;86.52;92792.03;5080548;28;20453;-42
2021/12/05 07:05:59;;;;;;;14.80;9.13;;;;;;;5.16;86.40;92795.94;5079159;28;20107;-42
2021/12/05 07:08:29;;;;;;;20.58;12.05;;;;;;;5.00;86.38;92793.56;5076898;28;20024;-44
2021/12/05 07:11:03;;;;;;;20.38;11.18;;;;;;;5.15;85.83;92791.00;5078682;28;20030;-45
2021/12/05 07:16:26;;;;;;;24.10;11.63;;;;;;;4.79;86.94;92796.19;5079501;28;20046;-41
2021/12/05 07:21:41;;;;;;;17.05;8.98;;;;;;;4.91;87.49;92802.19;5080839;28;20048;-42
2021/12/05 07:27:10;;;;;;;18.15;10.70;;;;;;;5.05;86.86;92798.91;5077173;28;20025;-43
2021/12/05 07:40:34;;;;;;;16.42;8.65;;;;;;;5.01;86.75;92790.28;5076053;28;20122;-44
2021/12/05 07:43:08;;;;;;;14.85;8.20;;;;;;;5.01;86.32;92784.81;5077106;28;20516;-41
2021/12/05 07:45:43;;;;;;;22.70;10.75;;;;;;;5.20;86.51;92792.84;5075661;28;20054;-44
2021/12/05 07:48:14;;;;;;;18.88;9.68;;;;;;;5.29;85.89;92792.41;5074279;28;20028;-41
2021/12/05 07:53:38;;;;;;;21.77;11.93;;;;;;;5.28;86.22;92797.16;5073285;28;20024;-41
2021/12/05 07:56:12;;;;;;;13.60;7.90;;;;;;;5.42;84.34;92811.53;5078407;28;20094;-42
2021/12/05 08:17:16;;;;;;;10.07;6.30;;;;;;;6.24;81.18;92791.72;5049234;28;20086;-44
2021/12/05 08:19:42;;;;;;;11.45;7.50;;;;;;;6.31;80.27;92793.03;5073567;28;20063;-43
2021/12/05 08:22:08;;;;;;;14.18;8.57;;;;;;;6.14;80.70;92788.00;5075214;28;20083;-43
2021/12/05 08:24:38;;;;;;;10.35;7.35;;;;;;;6.42;81.00;92809.22;5074215;28;20059;-42
2021/12/05 08:27:06;;;;;;;10.73;7.10;;;;;;;6.63;80.32;92807.16;5074824;28;20032;-45
2021/12/05 08:29:42;;;;;;;10.35;7.55;;;;;;;6.67;79.19;92804.84;5075075;28;20040;-41
2021/12/05 08:32:21;;;;;;;12.65;8.70;;;;;;;6.66;79.44;92803.34;5075042;28;20576;-42
2021/12/05 08:35:02;;;;;;;17.00;10.82;;;;;;;6.74;79.34;92791.16;5076874;28;20028;-42
2021/12/05 08:43:28;;;;;;;14.27;9.10;;;;;;;6.52;78.97;92813.69;5075513;28;20032;-43
2021/12/05 08:45:59;;;;;;;16.27;9.68;;;;;;;6.49;78.91;92820.25;5074317;28;20094;-42
2021/12/05 09:52:17;;;;;;;8.65;6.18;;;;;;;13.50;51.11;92728.22;5077513;28;20042;-42
2021/12/05 10:03:10;;;;;;;8.23;5.03;;;;;;;13.48;49.35;92701.09;5078500;28;20039;-42
2021/12/05 10:11:15;;;;;;;10.90;5.57;;;;;;;12.28;53.86;92675.59;5077057;28;20107;-44
2021/12/05 10:16:52;;;;;;;9.77;5.72;;;;;;;11.94;53.99;92693.06;5081597;28;20032;-45
2021/12/05 10:36:12;;;;;;;12.07;6.72;;;;;;;12.50;51.51;92669.66;5079576;28;20173;-43
2021/12/05 10:38:47;;;;;;;12.93;9.00;;;;;;;11.42;54.96;92662.81;5082671;28;20031;-42
2021/12/05 10:41:34;;;;;;;10.65;6.93;;;;;;;11.04;56.13;92656.31;5080716;28;20165;-45
2021/12/05 10:44:07;;;;;;;10.77;6.93;;;;;;;10.97;56.79;92665.41;5078831;28;20051;-41
2021/12/05 10:46:36;;;;;;;11.00;7.68;;;;;;;10.78;57.63;92662.50;5080954;28;20032;-42
2021/12/05 10:49:06;;;;;;;8.48;6.97;;;;;;;10.56;57.93;92648.38;5076288;28;20027;-42
2021/12/05 10:51:37;;;;;;;18.88;10.55;;;;;;;10.68;58.18;92653.41;5080961;28;20036;-45
2021/12/05 10:54:08;;;;;;;13.02;7.07;;;;;;;10.61;58.43;92652.91;5083803;28;20036;-44
2021/12/05 10:56:42;;;;;;;13.18;7.07;;;;;;;10.98;58.13;92653.06;5081920;28;20024;-46
2021/12/05 10:59:12;;;;;;;11.02;7.28;;;;;;;11.08;56.47;92651.84;5078964;28;20048;-44
2021/12/05 11:01:40;;;;;;;10.70;6.63;;;;;;;11.55;56.91;92647.16;5079297;28;20035;-47
2021/12/05 11:04:15;;;;;;;16.15;10.10;;;;;;;12.14;55.08;92647.59;5078948;28;20050;-47
2021/12/05 11:06:59;;;;;;;11.95;7.75;;;;;;;12.32;53.71;92643.41;5081344;28;20028;-47
2021/12/05 11:09:34;;;;;;;10.18;6.72;;;;;;;11.95;54.38;92650.28;5077360;28;20035;-47
2021/12/05 11:12:08;;;;;;;13.30;8.40;;;;;;;11.60;55.49;92638.63;5078481;28;20080;-44
2021/12/05 11:14:37;;;;;;;10.32;6.03;;;;;;;11.46;54.40;92607.09;5079518;28;20073;-44
2021/12/05 11:17:18;;;;;;;15.57;9.35;;;;;;;11.47;54.80;92638.25;5080218;28;20058;-44
2021/12/05 11:19:53;;;;;;;9.95;6.18;;;;;;;11.25;54.80;92620.69;5077228;28;20463;-42
2021/12/05 11:22:22;;;;;;;11.90;7.40;;;;;;;11.47;55.16;92625.16;5075500;28;20178;-44
2021/12/05 11:24:55;;;;;;;7.78;5.55;;;;;;;11.24;54.68;92617.19;5074671;28;20017;-41
2021/12/05 11:27:41;;;;;;;14.88;7.43;;;;;;;11.76;54.99;92612.22;5076835;28;20024;-42
2021/12/05 11:30:17;;;;;;;9.05;6.43;;;;;;;11.65;53.97;92609.94;5078024;28;20099;-43
2021/12/05 11:32:42;;;;;;;9.77;6.30;;;;;;;11.79;53.11;92607.56;5078664;28;20035;-43
2021/12/05 11:35:13;;;;;;;9.55;6.10;;;;;;;12.46;52.38;92608.44;5080145;28;20486;-46
2021/12/05 11:38:04;;;;;;;9.00;5.05;;;;;;;12.31;51.59;92597.66;5078961;28;20016;-45
2021/12/05 11:40:59;;;;;;;12.55;5.35;;;;;;;12.86;50.16;92594.75;5078267;28;20024;-44
2021/12/05 11:43:32;;;;;;;9.25;4.90;;;;;;;12.50;49.42;92599.72;5079977;28;20455;-45
2021/12/05 11:46:15;;;;;;;8.90;5.53;;;;;;;11.75;51.25;92583.09;5081236;28;20016;-42
2021/12/05 11:48:59;;;;;;;10.77;6.15;;;;;;;11.57;54.08;92597.53;5079109;28;20409;-44
2021/12/05 11:51:34;;;;;;;7.93;5.40;;;;;;;11.63;53.31;92590.44;5078481;28;20027;-42
2021/12/05 11:54:27;;;;;;;7.78;5.72;;;;;;;11.69;52.93;92576.41;5077652;28;20033;-43
2021/12/05 11:56:52;;;;;;;14.20;8.32;;;;;;;11.58;53.74;92574.88;5078756;28;20724;-43
2021/12/05 11:59:35;;;;;;;11.63;7.32;;;;;;;11.56;53.84;92574.72;5077565;28;20051;-41
2021/12/05 12:02:14;;;;;;;9.95;6.45;;;;;;;11.56;54.01;92563.66;5078845;28;20566;-42
2021/12/05 12:05:19;;;;;;;10.40;6.78;;;;;;;11.79;53.03;92563.31;5081400;28;20047;-44
2021/12/05 12:07:52;;;;;;;8.63;6.63;;;;;;;12.08;54.59;92562.06;5077424;28;20089;-42
2021/12/05 12:10:33;;;;;;;10.30;6.93;;;;;;;12.21;52.98;92568.50;5076059;28;20738;-42
2021/12/05 12:13:09;;;;;;;8.40;5.25;;;;;;;12.15;51.54;92566.75;5077345;28;20058;-41
2021/12/05 12:15:35;;;;;;;7.65;5.10;;;;;;;11.84;51.92;92548.50;5075927;28;20103;-42
2021/12/05 12:18:09;;;;;;;7.68;5.28;;;;;;;12.11;51.96;92560.91;5080219;28;20059;-42
2021/12/05 12:20:39;;;;;;;8.15;5.45;;;;;;;11.85;51.99;92556.19;5080788;28;20034;-41
2021/12/05 12:23:06;;;;;;;7.00;5.00;;;;;;;11.57;52.58;92561.59;5076407;28;20016;-42
2021/12/05 12:25:35;;;;;;;8.50;5.93;;;;;;;11.60;52.98;92549.41;5075860;28;20028;-42
2021/12/05 12:28:01;;;;;;;7.07;5.00;;;;;;;11.51;52.48;92550.09;5074178;28;20024;-42
2021/12/05 12:30:29;;;;;;;9.82;5.53;;;;;;;11.09;53.81;92548.31;5075718;28;20386;-44
2021/12/05 12:33:10;;;;;;;7.35;4.82;;;;;;;10.88;55.03;92545.28;5074356;28;20021;-43
2021/12/05 12:35:36;;;;;;;10.55;6.40;;;;;;;11.19;55.00;92548.38;5076064;28;20128;-46
2021/12/05 12:38:08;;;;;;;11.00;6.13;;;;;;;11.25;54.33;92543.31;5076311;28;20043;-43
2021/12/05 12:40:53;;;;;;;8.05;5.38;;;;;;;11.18;54.75;92547.63;5077925;28;20028;-42
2021/12/05 12:43:38;;;;;;;7.00;5.57;;;;;;;11.03;55.38;92542.31;5079953;28;20027;-42
2021/12/05 12:46:21;;;;;;;6.53;5.18;;;;;;;11.24;55.05;92550.84;5077663;28;20036;-43
2021/12/05 12:48:49;;;;;;;11.23;7.45;;;;;;;11.51;55.11;92548.06;5079390;28;20036;-44
2021/12/05 12:51:30;;;;;;;10.40;6.10;;;;;;;11.39;54.25;92536.81;5079445;28;20954;-41
2021/12/05 12:53:58;;;;;;;11.68;9.32;;;;;;;11.09;54.88;92533.75;5078176;28;20039;-44
2021/12/05 12:56:24;;;;;;;10.52;7.65;;;;;;;10.72;56.02;92532.97;5082042;28;20553;-45
2021/12/05 12:58:55;;;;;;;9.95;7.85;;;;;;;10.82;56.27;92522.75;5082512;28;20386;-43
2021/12/05 13:04:37;;;;;;;7.07;6.18;;;;;;;10.85;55.82;92529.16;5076967;28;20020;-44
2021/12/05 13:12:40;;;;;;;12.25;6.13;;;;;;;10.16;58.29;92525.75;5079040;28;20421;-44
2021/12/05 13:15:05;;;;;;;8.82;6.80;;;;;;;10.20;58.78;92535.06;5079973;28;20115;-46
2021/12/05 13:17:47;;;;;;;10.63;6.10;;;;;;;10.37;58.25;92529.53;5078822;28;20120;-47
2021/12/05 13:20:15;;;;;;;14.70;7.28;;;;;;;10.44;58.81;92533.50;5078725;28;20036;-44
2021/12/05 13:23:06;;;;;;;11.85;7.95;;;;;;;10.39;58.12;92534.50;5077410;28;20116;-42
2021/12/05 13:25:36;;;;;;;8.80;6.18;;;;;;;10.59;57.85;92533.31;5078694;28;20032;-43
2021/12/05 13:28:35;;;;;;;10.80;6.55;;;;;;;10.62;57.76;92521.88;5078114;28;20128;-43
2021/12/05 13:31:30;;;;;;;10.55;6.30;;;;;;;10.54;57.42;92528.81;5080917;28;20204;-43
2021/12/05 13:34:14;;;;;;;8.82;6.40;;;;;;;10.00;60.39;92516.88;5081745;28;20040;-46
2021/12/05 13:36:39;;;;;;;10.20;7.40;;;;;;;9.77;60.15;92527.41;5082818;28;20081;-47
2021/12/05 13:39:40;;;;;;;9.15;6.25;;;;;;;9.75;59.97;92524.47;5080084;28;20036;-45
2021/12/05 13:42:11;;;;;;;13.07;8.70;;;;;;;9.86;60.12;92524.00;5077872;28;20028;-44
2021/12/05 13:44:58;;;;;;;7.50;6.32;;;;;;;9.85;59.71;92515.00;5078773;28;20776;-44
2021/12/05 13:47:29;;;;;;;11.90;7.50;;;;;;;9.72;61.33;92511.84;5078310;28;20040;-45
2021/12/05 13:49:56;;;;;;;9.77;7.60;;;;;;;9.76;61.05;92514.94;5081235;28;20032;-47
2021/12/05 13:52:36;;;;;;;10.70;8.10;;;;;;;9.75;61.51;92522.47;5078580;28;20034;-46
2021/12/05 13:56:06;;;;;;;12.68;7.55;;;;;;;9.73;61.55;92521.56;5080519;28;20032;-46
2021/12/05 13:58:35;;;;;;;15.98;8.45;;;;;;;9.62;62.01;92533.78;5036147;28;20032;-44
2021/12/05 14:01:11;;;;;;;15.40;7.43;;;;;;;9.47;61.45;92544.94;5074879;28;20052;-44
2021/12/05 14:04:16;;;;;;;14.50;8.52;;;;;;;9.10;63.07;92538.41;5077519;28;20040;-45
2021/12/05 14:06:41;;;;;;;27.45;16.50;;;;;;;8.81;63.91;92539.34;5058823;28;20486;-47
2021/12/05 14:09:12;;;;;;;12.88;8.23;;;;;;;8.81;64.30;92545.59;5075912;28;20127;-47
2021/12/05 14:11:47;;;;;;;11.40;8.48;;;;;;;8.63;65.19;92546.03;5076618;28;20054;-46
2021/12/05 14:14:13;;;;;;;12.93;8.20;;;;;;;8.56;64.93;92546.78;5078030;28;20512;-48
2021/12/05 14:16:42;;;;;;;21.55;10.70;;;;;;;8.57;65.94;92556.53;5076631;28;20475;-44
2021/12/05 14:19:13;;;;;;;19.23;13.60;;;;;;;8.55;65.63;92554.34;5075947;28;20119;-45
2021/12/05 14:21:41;;;;;;;14.02;10.10;;;;;;;8.58;65.55;92558.72;5075859;28;20587;-46
2021/12/05 14:24:08;;;;;;;17.73;9.10;;;;;;;8.61;65.07;92560.34;5080925;28;20020;-46
2021/12/05 14:26:38;;;;;;;15.70;10.13;;;;;;;8.51;65.69;92558.75;5080287;28;20077;-46
2021/12/05 14:29:19;;;;;;;13.32;8.35;;;;;;;8.50;64.93;92568.28;5075818;28;20088;-48
2021/12/05 14:32:21;;;;;;;17.67;11.05;;;;;;;8.25;66.05;92559.94;5077643;28;20040;-46
2021/12/05 14:34:49;;;;;;;19.00;12.35;;;;;;;8.10;66.35;92559.97;5076676;28;20576;-45
2021/12/05 14:37:20;;;;;;;15.93;10.07;;;;;;;8.08;66.22;92551.53;5075739;28;20115;-47
2021/12/05 14:39:55;;;;;;;19.75;10.43;;;;;;;7.96;67.44;92553.22;5078935;28;20030;-45
2021/12/05 14:42:23;;;;;;;21.98;12.30;;;;;;;7.92;67.17;92548.09;5077342;28;20040;-47
2021/12/05 14:44:58;;;;;;;21.27;12.60;;;;;;;7.88;67.61;92556.00;5074352;28;20036;-44
2021/12/05 14:47:30;;;;;;;21.70;13.35;;;;;;;7.65;68.61;92558.03;5077971;28;20040;-47
2021/12/05 14:49:59;;;;;;;16.05;10.63;;;;;;;7.65;68.64;92560.78;5078741;28;20032;-44
2021/12/05 14:52:31;;;;;;;18.33;11.38;;;;;;;7.43;69.16;92565.00;5075807;28;20199;-44
2021/12/05 14:54:59;;;;;;;16.00;9.82;;;;;;;7.16;70.24;92566.66;5076791;28;20024;-45
2021/12/05 14:57:31;;;;;;;15.32;10.27;;;;;;;7.20;70.31;92558.78;5079775;28;20043;-44
2021/12/05 15:00:08;;;;;;;14.60;9.13;;;;;;;7.22;70.19;92555.47;5077563;28;20024;-47
2021/12/05 15:02:35;;;;;;;18.90;12.18;;;;;;;7.18;71.08;92561.34;5078113;28;20028;-47
2021/12/05 15:05:01;;;;;;;21.90;12.35;;;;;;;7.16;70.82;92557.69;5075321;28;20029;-47
2021/12/05 15:07:28;;;;;;;16.90;10.07;;;;;;;7.05;71.47;92561.50;5079144;28;20105;-48
2021/12/05 15:09:57;;;;;;;19.88;12.55;;;;;;;7.05;71.49;92577.97;5079682;28;20027;-47
2021/12/05 15:12:25;;;;;;;25.42;17.35;;;;;;;7.09;70.75;92578.34;5081157;28;20245;-47
2021/12/05 15:14:54;;;;;;;21.60;14.05;;;;;;;7.03;71.20;92586.03;5080871;28;20107;-48
2021/12/05 15:17:22;;;;;;;21.75;12.82;;;;;;;6.85;72.15;92587.09;5081697;28;20037;-47
2021/12/05 15:19:52;;;;;;;29.58;20.13;;;;;;;6.70;72.61;92578.81;5078862;28;20082;-47
2021/12/05 15:22:18;;;;;;;27.50;15.48;;;;;;;6.79;72.51;92584.53;5077315;28;20047;-47
2021/12/05 15:25:01;;;;;;;43.70;26.38;;;;;;;6.66;73.31;92592.16;5079077;28;20449;-50
2021/12/05 15:27:30;;;;;;;22.90;15.32;;;;;;;6.68;73.04;92584.13;5081779;28;20417;-47
2021/12/05 15:30:04;;;;;;;25.75;15.27;;;;;;;6.62;73.42;92594.53;5078747;28;20032;-49
2021/12/05 15:32:31;;;;;;;18.48;11.32;;;;;;;6.59;73.60;92592.84;5082953;28;20044;-50
2021/12/05 15:35:03;;;;;;;18.20;10.82;;;;;;;6.59;73.70;92592.84;5079839;28;20027;-44
2021/12/05 15:37:29;;;;;;;24.27;13.60;;;;;;;6.53;74.38;92598.53;5078380;28;20024;-45
2021/12/05 15:39:56;;;;;;;27.75;16.25;;;;;;;6.52;74.59;92602.53;5076446;28;20569;-46
2021/12/05 15:42:25;;;;;;;39.20;16.42;;;;;;;6.58;74.61;92594.16;5075983;28;20035;-45
2021/12/05 15:44:53;;;;;;;22.10;14.43;;;;;;;6.43;74.52;92581.09;5081955;28;20039;-44
2021/12/05 15:47:24;;;;;;;24.30;13.52;;;;;;;6.48;74.87;92584.97;5075833;28;20417;-48
2021/12/05 15:50:12;;;;;;;22.83;11.75;;;;;;;6.39;75.15;92586.19;5074474;28;20485;-46
2021/12/05 15:53:00;;;;;;;28.25;16.58;;;;;;;6.40;75.52;92598.66;5076511;28;20034;-44
2021/12/05 15:55:43;;;;;;;17.52;11.25;;;;;;;6.39;75.46;92596.47;5075359;28;20034;-47
2021/12/05 15:58:30;;;;;;;19.70;10.25;;;;;;;6.36;75.80;92595.53;5076025;28;20060;-51
2021/12/05 16:01:11;;;;;;;20.33;11.95;;;;;;;6.26;76.29;92591.81;5075351;28;20032;-46
2021/12/05 16:03:43;;;;;;;18.02;11.02;;;;;;;6.26;76.37;92588.34;5074530;28;20089;-48
2021/12/05 16:06:10;;;;;;;22.00;12.80;;;;;;;6.27;76.50;92584.31;5074518;28;20596;-44
2021/12/05 16:08:36;;;;;;;37.85;27.58;;;;;;;6.02;77.30;92576.53;5078541;28;20050;-44
2021/12/05 16:11:02;;;;;;;18.40;10.98;;;;;;;5.97;77.29;92560.25;5071871;28;20116;-44
2021/12/05 16:13:37;;;;;;;19.13;11.77;;;;;;;6.09;77.72;92569.63;5075344;28;20058;-49
2021/12/05 16:16:11;;;;;;;23.45;11.68;;;;;;;6.05;77.46;92564.50;5073206;28;20062;-49
2021/12/05 16:18:40;;;;;;;21.90;13.52;;;;;;;6.07;77.90;92596.84;5075339;28;20028;-45
2021/12/05 16:21:15;;;;;;;;;;;;;;;6.07;78.02;92603.06;5075835;28;20047;-46
2021/12/05 16:23:41;;;;;;;23.27;13.63;;;;;;;5.93;78.38;92587.28;5073034;28;19916;-47
2021/12/05 16:26:13;;;;;;;21.15;13.30;;;;;;;6.01;78.24;92596.25;5072217;28;20028;-45
2021/12/05 16:28:43;;;;;;;20.13;12.30;;;;;;;5.99;78.40;92598.81;5074355;28;20048;-44
2021/12/05 16:31:31;;;;;;;18.17;11.30;;;;;;;5.98;78.47;92594.59;5078032;28;20033;-47
2021/12/05 16:34:01;;;;;;;21.15;11.27;;;;;;;6.00;78.29;92603.75;5075806;28;20043;-45
2021/12/05 16:36:30;;;;;;;17.85;12.18;;;;;;;6.02;78.23;92622.41;5075293;28;20062;-50
2021/12/05 16:38:55;;;;;;;18.92;11.85;;;;;;;5.99;78.37;92628.94;5078037;28;20028;-45
2021/12/05 16:41:30;;;;;;;15.65;10.48;;;;;;;6.07;78.22;92635.94;5073760;28;20077;-43
2021/12/05 16:44:12;;;;;;;22.15;12.55;;;;;;;6.09;78.17;92636.13;5073204;28;20055;-43
2021/12/05 16:46:41;;;;;;;17.73;11.98;;;;;;;6.08;77.59;92631.94;5075572;28;20040;-43
2021/12/05 16:49:19;;;;;;;20.52;13.02;;;;;;;5.97;78.20;92623.28;5078190;28;20032;-42
2021/12/05 16:51:47;;;;;;;21.75;12.60;;;;;;;5.95;78.36;92637.53;5076366;28;20044;-43
2021/12/05 16:54:18;;;;;;;23.60;13.57;;;;;;;5.98;78.31;92630.94;5075918;28;20040;-41
2021/12/05 16:57:09;;;;;;;19.45;13.45;;;;;;;5.91;78.59;92648.06;5074409;28;20140;-44
2021/12/05 16:59:37;;;;;;;23.65;14.50;;;;;;;6.03;78.65;92649.25;5081710;28;20084;-44
2021/12/05 17:02:16;;;;;;;25.23;15.23;;;;;;;6.21;78.19;92646.78;5074992;28;20028;-43
2021/12/05 17:05:04;;;;;;;19.55;12.60;;;;;;;6.19;77.80;92652.81;5071839;28;20036;-44
2021/12/05 17:07:50;;;;;;;23.23;12.43;;;;;;;6.31;76.96;92666.94;5072010;28;20040;-44
2021/12/05 17:10:19;;;;;;;22.67;12.88;;;;;;;6.34;76.80;92660.41;5076251;28;21212;-44
2021/12/05 17:12:44;;;;;;;24.40;14.93;;;;;;;6.38;76.80;92669.00;5073073;28;20028;-42
2021/12/05 17:15:16;;;;;;;19.25;14.38;;;;;;;6.45;76.90;92676.53;5072044;28;20591;-42